Time;durP1;ratioP1;P1;durP2;ratioP2;P2;SDS_P1;SDS_P2;PMS_P1;PMS_P2;Temp;Humidity;BMP_temperature;BMP_pressure;BME280_temperature;BME280_humidity;BME280_pressure;Samples;Min_cycle;Max_cycle;Signal;HPM_P1;HPM_P2
2020/04/28 00:04:57;;;;;;;3.9;3.5;;;;;;;;;;;;;
2020/04/28 00:07:21;;;;;;;3.9;3.5;;;;;;;;;;;;;
2020/04/28 00:09:47;;;;;;;4.6;3.3;;;;;;;;;;;;;
2020/04/28 00:12:12;;;;;;;4.5;3.1;;;;;;;;;;;;;
2020/04/28 00:14:37;;;;;;;3.8;3.4;;;;;;;;;;;;;
2020/04/28 00:17:02;;;;;;;6.4;3.2;;;;;;;;;;;;;
2020/04/28 00:19:27;;;;;;;3.9;3;;;;;;;;;;;;;
2020/04/28 00:21:52;;;;;;;6.1;3.4;;;;;;;;;;;;;
2020/04/28 00:24:18;;;;;;;6.3;3.1;;;;;;;;;;;;;
2020/04/28 00:26:43;;;;;;;4.4;3.1;;;;;;;;;;;;;
2020/04/28 00:29:08;;;;;;;3.3;2.8;;;;;;;;;;;;;
2020/04/28 00:31:33;;;;;;;4.6;3.1;;;;;;;;;;;;;
2020/04/28 00:33:58;;;;;;;3.7;3.1;;;;;;;;;;;;;
2020/04/28 00:36:24;;;;;;;3.7;3;;;;;;;;;;;;;
2020/04/28 00:38:52;;;;;;;5.7;3.2;;;;;;;;;;;;;
2020/04/28 00:41:17;;;;;;;5.6;3.7;;;;;;;;;;;;;
2020/04/28 00:43:40;;;;;;;3.5;3.2;;;;;;;;;;;;;
2020/04/28 00:46:08;;;;;;;5.4;3.4;;;;;;;;;;;;;
2020/04/28 00:48:31;;;;;;;4.9;3.2;;;;;;;;;;;;;
2020/04/28 00:50:58;;;;;;;6;3.3;;;;;;;;;;;;;
2020/04/28 00:53:23;;;;;;;4.4;3.2;;;;;;;;;;;;;
2020/04/28 00:55:48;;;;;;;4.1;3.5;;;;;;;;;;;;;
2020/04/28 00:58:13;;;;;;;5;3.4;;;;;;;;;;;;;
2020/04/28 01:03:03;;;;;;;4.9;3.7;;;;;;;;;;;;;
2020/04/28 01:05:30;;;;;;;4.1;3.3;;;;;;;;;;;;;
2020/04/28 01:07:55;;;;;;;7.1;3.3;;;;;;;;;;;;;
2020/04/28 01:10:20;;;;;;;3.5;3.2;;;;;;;;;;;;;
2020/04/28 01:12:45;;;;;;;4.1;3.3;;;;;;;;;;;;;
2020/04/28 01:15:10;;;;;;;4.9;3.5;;;;;;;;;;;;;
2020/04/28 01:17:37;;;;;;;5.7;3.5;;;;;;;;;;;;;
2020/04/28 01:20:02;;;;;;;4.7;3.5;;;;;;;;;;;;;
2020/04/28 01:22:28;;;;;;;4.4;3.3;;;;;;;;;;;;;
2020/04/28 01:24:53;;;;;;;4.4;3.4;;;;;;;;;;;;;
2020/04/28 01:27:19;;;;;;;5.3;3.9;;;;;;;;;;;;;
2020/04/28 01:29:44;;;;;;;4;3.5;;;;;;;;;;;;;
2020/04/28 01:32:09;;;;;;;5.6;3.5;;;;;;;;;;;;;
2020/04/28 01:34:34;;;;;;;5.6;3.9;;;;;;;;;;;;;
2020/04/28 01:36:59;;;;;;;4.8;3.8;;;;;;;;;;;;;
2020/04/28 01:39:24;;;;;;;4.1;3.5;;;;;;;;;;;;;
2020/04/28 01:41:49;;;;;;;5.7;3.6;;;;;;;;;;;;;
2020/04/28 01:44:15;;;;;;;4.8;3.9;;;;;;;;;;;;;
2020/04/28 01:46:40;;;;;;;9.7;3.9;;;;;;;;;;;;;
2020/04/28 01:49:05;;;;;;;5.4;3.5;;;;;;;;;;;;;
2020/04/28 01:51:30;;;;;;;4.5;3.6;;;;;;;;;;;;;
2020/04/28 01:53:55;;;;;;;4.6;3.5;;;;;;;;;;;;;
2020/04/28 01:56:21;;;;;;;5.8;3.7;;;;;;;;;;;;;
2020/04/28 01:58:46;;;;;;;6;3.7;;;;;;;;;;;;;
2020/04/28 02:03:36;;;;;;;7.5;4.4;;;;;;;;;;;;;
2020/04/28 02:06:01;;;;;;;7.5;4.2;;;;;;;;;;;;;
2020/04/28 02:08:26;;;;;;;4.6;3.8;;;;;;;;;;;;;
2020/04/28 02:10:51;;;;;;;6.1;4;;;;;;;;;;;;;
2020/04/28 02:13:16;;;;;;;4.3;3.8;;;;;;;;;;;;;
2020/04/28 02:15:42;;;;;;;4.8;3.7;;;;;;;;;;;;;
2020/04/28 02:18:07;;;;;;;4.9;4;;;;;;;;;;;;;
2020/04/28 02:20:32;;;;;;;5;3.8;;;;;;;;;;;;;
2020/04/28 02:22:57;;;;;;;6.2;3.8;;;;;;;;;;;;;
2020/04/28 02:25:22;;;;;;;4.6;4;;;;;;;;;;;;;
2020/04/28 02:27:48;;;;;;;4.7;3.8;;;;;;;;;;;;;
2020/04/28 02:32:50;;;;;;;3.7;3.3;;;;;;;;;;;;;
2020/04/28 02:35:08;;;;;;;3.8;2.7;;;;;;;;;;;;;
2020/04/28 02:38:10;;;;;;;3.4;2.9;;;;;;;;;;;;;
2020/04/28 02:39:53;;;;;;;3.5;3;;;;;;;;;;;;;
2020/04/28 02:42:18;;;;;;;3.6;3;;;;;;;;;;;;;
2020/04/28 02:44:43;;;;;;;3.7;2.9;;;;;;;;;;;;;
2020/04/28 02:47:08;;;;;;;3.9;3.5;;;;;;;;;;;;;
2020/04/28 02:49:34;;;;;;;4;3.6;;;;;;;;;;;;;
2020/04/28 02:51:59;;;;;;;4.6;3.9;;;;;;;;;;;;;
2020/04/28 02:54:24;;;;;;;9.5;4.1;;;;;;;;;;;;;
2020/04/28 02:56:49;;;;;;;7.6;4;;;;;;;;;;;;;
2020/04/28 02:59:14;;;;;;;6.8;3.8;;;;;;;;;;;;;
2020/04/28 03:01:40;;;;;;;8.2;4.4;;;;;;;;;;;;;
2020/04/28 03:04:05;;;;;;;5.7;4.1;;;;;;;;;;;;;
2020/04/28 03:06:31;;;;;;;4.4;3.9;;;;;;;;;;;;;
2020/04/28 03:08:56;;;;;;;5.2;3.5;;;;;;;;;;;;;
2020/04/28 03:11:21;;;;;;;5.3;4;;;;;;;;;;;;;
2020/04/28 03:13:46;;;;;;;6.3;3.9;;;;;;;;;;;;;
2020/04/28 03:16:11;;;;;;;4.3;3.7;;;;;;;;;;;;;
2020/04/28 03:18:36;;;;;;;8;4;;;;;;;;;;;;;
2020/04/28 03:21:01;;;;;;;5.6;4.4;;;;;;;;;;;;;
2020/04/28 03:23:27;;;;;;;6.5;4.2;;;;;;;;;;;;;
2020/04/28 03:25:52;;;;;;;5.5;4.2;;;;;;;;;;;;;
2020/04/28 03:28:17;;;;;;;5.6;4.2;;;;;;;;;;;;;
2020/04/28 03:30:42;;;;;;;5.7;4.1;;;;;;;;;;;;;
2020/04/28 03:33:07;;;;;;;7.7;4.5;;;;;;;;;;;;;
2020/04/28 03:35:32;;;;;;;15.2;5.7;;;;;;;;;;;;;
2020/04/28 03:37:58;;;;;;;8.3;4.2;;;;;;;;;;;;;
2020/04/28 03:40:23;;;;;;;7.5;4.4;;;;;;;;;;;;;
2020/04/28 03:42:48;;;;;;;5.5;4.1;;;;;;;;;;;;;
2020/04/28 03:45:13;;;;;;;7.5;4.4;;;;;;;;;;;;;
2020/04/28 03:47:38;;;;;;;9.6;5.1;;;;;;;;;;;;;
2020/04/28 03:50:03;;;;;;;9.7;4.9;;;;;;;;;;;;;
2020/04/28 03:52:28;;;;;;;4.8;4.3;;;;;;;;;;;;;
2020/04/28 03:54:53;;;;;;;16.3;4.9;;;;;;;;;;;;;
2020/04/28 03:57:19;;;;;;;10.7;4.7;;;;;;;;;;;;;
2020/04/28 03:59:44;;;;;;;12.2;6.1;;;;;;;;;;;;;
2020/04/28 04:02:32;;;;;;;7;6;;;;;;;8.73;80.44141;929.9381;;;;
2020/04/28 04:04:58;;;;;;;5.5;4.6;;;;;;;8.88;79.59473;930.0284;;;;
2020/04/28 04:07:23;;;;;;;6.7;4.1;;;;;;;8.89;79.37891;929.992;;;;
2020/04/28 04:09:48;;;;;;;10.8;4.8;;;;;;;8.62;80.6377;930.0005;;;;
2020/04/28 04:12:13;;;;;;;5.2;4.3;;;;;;;8.76;81.11816;930.0208;;;;
2020/04/28 04:14:38;;;;;;;7.1;4.9;;;;;;;8.81;80.1709;929.9621;;;;
2020/04/28 04:17:03;;;;;;;8.5;4.9;;;;;;;8.84;80.22461;929.9625;;;;
2020/04/28 04:19:29;;;;;;;12.4;5.3;;;;;;;8.91;80.08691;930.0031;;;;
2020/04/28 04:21:54;;;;;;;9.1;4.8;;;;;;;9.01;79.9248;929.9891;;;;
2020/04/28 04:24:19;;;;;;;6.3;4.5;;;;;;;9.09;79.4873;930.0403;;;;
2020/04/28 04:26:44;;;;;;;16.2;5.5;;;;;;;9.05;79.1709;930.0363;;;;
2020/04/28 04:29:09;;;;;;;8.7;4.9;;;;;;;9;79.26563;930.0549;;;;
2020/04/28 04:31:34;;;;;;;8.7;4.6;;;;;;;8.97;79.36133;930.0731;;;;
2020/04/28 04:34:00;;;;;;;13.7;5.6;;;;;;;8.91;79.71191;930.1286;;;;
2020/04/28 04:36:26;;;;;;;9.1;6;;;;;;;8.93;79.6709;930.0254;;;;
2020/04/28 04:38:50;;;;;;;8.3;5.9;;;;;;;8.83;79.80078;930.0751;;;;
2020/04/28 04:41:16;;;;;;;15.7;6.5;;;;;;;8.81;80.11621;930.0363;;;;
2020/04/28 04:43:41;;;;;;;10.1;6.2;;;;;;;8.86;79.80762;930.0046;;;;
2020/04/28 04:46:06;;;;;;;33.6;8.8;;;;;;;8.96;79.62109;930.0993;;;;
2020/04/28 04:48:31;;;;;;;13.4;6.3;;;;;;;8.98;79.36328;930.1074;;;;
2020/04/28 04:50:56;;;;;;;14.5;6.6;;;;;;;9.01;79.53809;930.0779;;;;
2020/04/28 04:53:21;;;;;;;14;6.6;;;;;;;9.24;78.39648;929.9462;;;;
2020/04/28 04:55:47;;;;;;;10.1;6.6;;;;;;;9.35;78.08789;930.0258;;;;
2020/04/28 04:58:12;;;;;;;10.6;5.8;;;;;;;9.38;78.49121;930.0154;;;;
2020/04/28 05:03:03;;;;;;;12.3;6.7;;;;;;;9.45;77.94727;930.0444;;;;
2020/04/28 05:05:30;;;;;;;20.6;8.4;;;;;;;9.41;78.28125;930.0491;;;;
2020/04/28 05:07:53;;;;;;;16.1;7.6;;;;;;;9.55;77.7373;930.0817;;;;
2020/04/28 05:10:18;;;;;;;13.2;6.9;;;;;;;9.79;76.9707;930.0516;;;;
2020/04/28 05:12:44;;;;;;;11.8;6.9;;;;;;;9.94;76.4834;930.0198;;;;
2020/04/28 05:15:09;;;;;;;17.4;7.6;;;;;;;10.14;76.11914;930.0031;;;;
2020/04/28 05:17:34;;;;;;;12.6;6.4;;;;;;;10.28;76.11035;929.93;;;;
2020/04/28 05:19:59;;;;;;;17.9;7.9;;;;;;;10.46;75.86719;929.968;;;;
2020/04/28 05:22:25;;;;;;;9.6;5.5;;;;;;;10.63;74.67676;929.954;;;;
2020/04/28 05:24:50;;;;;;;13.1;5.9;;;;;;;10.79;74.85156;929.9692;;;;
2020/04/28 05:27:15;;;;;;;12.4;5.3;;;;;;;11.21;73.4043;929.9219;;;;
2020/04/28 05:29:41;;;;;;;13.3;4.4;;;;;;;12.69;68.12402;929.9537;;;;
2020/04/28 05:32:06;;;;;;;12.7;4.4;;;;;;;13.97;63.62988;929.8873;;;;
2020/04/28 05:34:31;;;;;;;16.2;4.7;;;;;;;14.97;59.36816;929.8516;;;;
2020/04/28 05:36:56;;;;;;;11.2;4;;;;;;;15.48;58.12207;929.8453;;;;
2020/04/28 05:39:25;;;;;;;9.7;3.2;;;;;;;16.08;56.17871;929.7758;;;;
2020/04/28 05:41:50;;;;;;;5.7;3.1;;;;;;;16.71;54.49805;929.8069;;;;
2020/04/28 05:44:19;;;;;;;8;3.2;;;;;;;17.49;52.07715;929.7436;;;;
2020/04/28 05:46:49;;;;;;;5.3;2.8;;;;;;;17.84;50.7959;929.736;;;;
2020/04/28 05:49:14;;;;;;;4.8;2.7;;;;;;;18.3;49.08203;929.6775;;;;
2020/04/28 05:51:41;;;;;;;5.7;2.8;;;;;;;18.89;48.08887;929.7008;;;;
2020/04/28 05:54:06;;;;;;;8.3;2.9;;;;;;;19.53;46.13086;929.6234;;;;
2020/04/28 05:58:57;;;;;;;7.3;2.5;;;;;;;20.21;44.22949;929.5984;;;;
2020/04/28 06:01:26;;;;;;;3.6;2.3;;;;;;;20.61;43.21875;929.6016;;;;
2020/04/28 06:03:51;;;;;;;6.3;2.4;;;;;;;20.51;43.45313;929.611;;;;
2020/04/28 06:06:12;;;;;;;3.4;2.2;;;;;;;20.01;45.18848;929.5795;;;;
2020/04/28 06:08:37;;;;;;;5.5;2.5;;;;;;;20.01;45.67871;929.5455;;;;
2020/04/28 06:11:02;;;;;;;5.5;2.9;;;;;;;19.19;45.82715;929.5939;;;;
2020/04/28 06:13:28;;;;;;;4.8;3.2;;;;;;;17.53;50.15625;929.6423;;;;
2020/04/28 06:15:53;;;;;;;5.6;3;;;;;;;17.01;51.4873;929.6692;;;;
2020/04/28 06:18:20;;;;;;;8.9;3.3;;;;;;;17.23;51.59473;929.5942;;;;
2020/04/28 06:20:46;;;;;;;8.4;3.1;;;;;;;16.68;53.36035;929.5722;;;;
2020/04/28 06:23:11;;;;;;;6.1;2.8;;;;;;;17.41;51.65137;929.5822;;;;
2020/04/28 06:25:36;;;;;;;7.7;2.9;;;;;;;18.04;51.17871;929.5394;;;;
2020/04/28 06:28:02;;;;;;;7.9;2.7;;;;;;;18.85;48.79395;929.4554;;;;
2020/04/28 06:30:27;;;;;;;7.8;2.8;;;;;;;19.11;48.04297;929.4453;;;;
2020/04/28 06:32:53;;;;;;;10;3;;;;;;;19.5;47.51465;929.4594;;;;
2020/04/28 06:35:19;;;;;;;7.7;2.6;;;;;;;19.54;47.27344;929.4959;;;;
2020/04/28 06:37:45;;;;;;;6.9;2.4;;;;;;;19.84;47.17773;929.4854;;;;
2020/04/28 06:40:10;;;;;;;7.7;2.4;;;;;;;20.09;44.89355;929.4222;;;;
2020/04/28 06:42:35;;;;;;;7.5;2.7;;;;;;;20.26;45.41406;929.37;;;;
2020/04/28 06:45:00;;;;;;;6;2.5;;;;;;;20.47;44.79297;929.3333;;;;
2020/04/28 06:47:26;;;;;;;4.7;2.4;;;;;;;20.12;43.87012;929.3052;;;;
2020/04/28 06:49:52;;;;;;;6.5;2.4;;;;;;;19.8;45.13379;929.3;;;;
2020/04/28 06:52:18;;;;;;;5;2.3;;;;;;;19.77;44.19629;929.3282;;;;
2020/04/28 06:54:43;;;;;;;7;2.3;;;;;;;19.34;45.3418;929.3289;;;;
2020/04/28 06:57:10;;;;;;;3.6;2.1;;;;;;;18.8;48.71973;929.3585;;;;
2020/04/28 06:59:36;;;;;;;5.1;2.1;;;;;;;18.54;48.44531;929.3505;;;;
2020/04/28 07:02:01;;;;;;;2.6;2.2;;;;;;;18.97;49.06348;929.288;;;;
2020/04/28 07:04:32;;;;;;;5.7;2.1;;;;;;;19.79;46.28516;929.2999;;;;
2020/04/28 07:06:58;;;;;;;5.3;2.3;;;;;;;20.58;45.23633;929.323;;;;
2020/04/28 07:09:23;;;;;;;3.3;1.9;;;;;;;20.74;42.91406;929.3133;;;;
2020/04/28 07:11:50;;;;;;;4.7;2;;;;;;;21.01;41.89941;929.2855;;;;
2020/04/28 07:14:16;;;;;;;3.9;2;;;;;;;21.96;40.81738;929.2497;;;;
2020/04/28 07:16:42;;;;;;;3.9;1.9;;;;;;;22.87;38.15332;929.1992;;;;
2020/04/28 07:19:07;;;;;;;5.2;1.9;;;;;;;23.54;36.82324;929.212;;;;
2020/04/28 07:21:32;;;;;;;3.3;2.1;;;;;;;23.96;36.90527;929.1451;;;;
2020/04/28 07:23:57;;;;;;;3.5;2.1;;;;;;;23.79;36.40918;929.13;;;;
2020/04/28 07:26:22;;;;;;;4.8;2.3;;;;;;;23.99;36.68359;929.1365;;;;
2020/04/28 07:28:47;;;;;;;6.2;2.3;;;;;;;24.08;34.93652;929.0952;;;;
2020/04/28 07:31:15;;;;;;;5;2.2;;;;;;;24.06;34.33496;929.0984;;;;
2020/04/28 07:33:41;;;;;;;3.9;2.1;;;;;;;24.06;34.44043;929.101;;;;
2020/04/28 07:36:07;;;;;;;6.2;2;;;;;;;24.06;34.12305;929.1125;;;;
2020/04/28 07:38:32;;;;;;;6.2;2;;;;;;;25.67;33.84375;929.0611;;;;
2020/04/28 07:40:57;;;;;;;3.9;2.1;;;;;;;26.3;31.80859;929.0328;;;;
2020/04/28 07:43:22;;;;;;;3.6;2;;;;;;;27.26;30.32422;929.0273;;;;
2020/04/28 07:45:48;;;;;;;3.4;1.9;;;;;;;27.67;29.63867;929.0275;;;;
2020/04/28 07:48:13;;;;;;;4.4;1.9;;;;;;;27.26;28.61523;929.0293;;;;
2020/04/28 07:50:38;;;;;;;4.9;2;;;;;;;27.06;29.87207;928.9568;;;;
2020/04/28 07:53:03;;;;;;;2.3;1.7;;;;;;;28.22;28.84375;928.9557;;;;
2020/04/28 07:55:29;;;;;;;2.7;1.8;;;;;;;28.61;27.15527;928.9628;;;;
2020/04/28 07:57:54;;;;;;;4.2;1.8;;;;;;;29.02;27.2168;928.9612;;;;
2020/04/28 08:00:27;;;;;;;3.1;1.7;;;;;;;28.64;28.6084;928.8727;;;;
2020/04/28 08:02:54;;;;;;;5.1;1.8;;;;;;;28.78;27.09375;928.858;;;;
2020/04/28 08:05:19;;;;;;;2.7;1.7;;;;;;;28.47;27.77734;928.8594;;;;
2020/04/28 08:07:47;;;;;;;2.5;1.8;;;;;;;27.64;29.36426;928.8756;;;;
2020/04/28 08:10:12;;;;;;;1.8;1.6;;;;;;;27.28;29.25781;928.8683;;;;
2020/04/28 08:12:39;;;;;;;4.1;1.8;;;;;;;27.77;28.67188;928.8334;;;;
2020/04/28 08:15:05;;;;;;;4.1;1.7;;;;;;;27.26;30.64355;928.839;;;;
2020/04/28 08:17:30;;;;;;;2.9;1.9;;;;;;;28.39;29.40137;928.7725;;;;
2020/04/28 08:19:55;;;;;;;2;1.8;;;;;;;28.56;27.79492;928.8097;;;;
2020/04/28 08:22:20;;;;;;;2.5;1.8;;;;;;;28.99;27.04785;928.8362;;;;
2020/04/28 08:24:45;;;;;;;3.3;1.7;;;;;;;29.31;26.03027;928.8041;;;;
2020/04/28 08:27:11;;;;;;;3.6;1.6;;;;;;;29.68;26.67188;928.8002;;;;
2020/04/28 08:29:36;;;;;;;3.3;2;;;;;;;29.01;28.95313;928.8062;;;;
2020/04/28 08:32:02;;;;;;;2.2;1.6;;;;;;;29.85;26.24023;928.7821;;;;
2020/04/28 08:34:27;;;;;;;4.5;1.9;;;;;;;30.24;26.48926;928.7807;;;;
2020/04/28 08:36:54;;;;;;;6.4;2;;;;;;;30.26;24.77148;928.7111;;;;
2020/04/28 08:39:20;;;;;;;6.2;1.9;;;;;;;30.75;24.24902;928.6176;;;;
2020/04/28 08:41:48;;;;;;;6.4;1.8;;;;;;;31.08;24.49414;928.67;;;;
2020/04/28 08:44:13;;;;;;;4.7;1.7;;;;;;;31.14;25.21484;928.6319;;;;
2020/04/28 08:46:39;;;;;;;3.2;1.4;;;;;;;30.69;26.50391;928.5734;;;;
2020/04/28 08:49:04;;;;;;;4.4;1.5;;;;;;;31.24;25.125;928.4872;;;;
2020/04/28 08:51:29;;;;;;;2.6;1.5;;;;;;;31.12;26.03906;928.4874;;;;
2020/04/28 08:53:55;;;;;;;4.8;1.6;;;;;;;30.21;27.51465;928.5513;;;;
2020/04/28 09:03:52;;;;;;;2.8;1.3;;;;;;;28.02;30.30371;928.3774;;;;
2020/04/28 09:11:17;;;;;;;1.5;1.3;;;;;;;26.94;30.23145;928.3228;;;;
2020/04/28 09:13:32;;;;;;;3.7;1.3;;;;;;;26.77;30.84766;928.3178;;;;
2020/04/28 09:18:12;;;;;;;5.1;1.5;;;;;;;26.23;32.75098;928.2814;;;;
2020/04/28 09:23:10;;;;;;;3.8;1.4;;;;;;;25.71;33.56348;928.3044;;;;
2020/04/28 09:25:46;;;;;;;1.8;1.2;;;;;;;25.71;34.27246;928.2841;;;;
2020/04/28 09:28:12;;;;;;;3.2;1.3;;;;;;;25.71;33.96484;928.2453;;;;
2020/04/28 09:35:27;;;;;;;3.2;1.3;;;;;;;25.8;34.24414;928.1813;;;;
2020/04/28 09:40:03;;;;;;;4;1.4;;;;;;;25.57;34.63965;928.1813;;;;
2020/04/28 09:43:11;;;;;;;3.1;1.2;;;;;;;25.6;36.0957;928.1891;;;;
2020/04/28 09:44:51;;;;;;;5.5;1.4;;;;;;;25.56;34.30859;928.1636;;;;
2020/04/28 09:47:58;;;;;;;3.7;1.4;;;;;;;25.43;34.57031;928.1255;;;;
2020/04/28 09:49:55;;;;;;;1.6;1.4;;;;;;;25.22;34.67188;928.0945;;;;
2020/04/28 09:52:26;;;;;;;2.2;1.5;;;;;;;24.73;37.54688;928.1069;;;;
2020/04/28 09:54:33;;;;;;;2.9;1.3;;;;;;;24.82;35.20703;928.0842;;;;
2020/04/28 09:59:40;;;;;;;4.6;1.4;;;;;;;25.09;35.05176;928.0348;;;;
2020/04/28 10:04:29;;;;;;;2.7;1.3;;;;;;;25.03;35.68359;927.949;;;;
2020/04/28 10:06:49;;;;;;;3.7;1.3;;;;;;;25.14;35.44531;927.9772;;;;
2020/04/28 10:09:15;;;;;;;4.5;1.4;;;;;;;25.37;34.9668;927.9589;;;;
2020/04/28 10:11:52;;;;;;;2.4;1.4;;;;;;;25.7;33.58691;927.8745;;;;
2020/04/28 10:14:40;;;;;;;3;1.3;;;;;;;25.78;34.90527;927.8918;;;;
2020/04/28 10:16:22;;;;;;;2.2;1.2;;;;;;;25.92;34.54883;927.8867;;;;
2020/04/28 10:23:44;;;;;;;4.7;1.3;;;;;;;26.73;33.58105;927.824;;;;
2020/04/28 10:26:46;;;;;;;4;1.3;;;;;;;26.96;32.78027;927.7767;;;;
2020/04/28 10:28:49;;;;;;;1.7;1.3;;;;;;;26.91;32.58691;927.7771;;;;
2020/04/28 10:42:59;;;;;;;2.1;1.2;;;;;;;24.18;39.04395;927.6995;;;;
2020/04/28 10:45:30;;;;;;;2;1.1;;;;;;;23.58;39.08496;927.6909;;;;
2020/04/28 10:53:00;;;;;;;4.8;1.4;;;;;;;22.85;40.125;927.678;;;;
2020/04/28 10:55:13;;;;;;;6.5;1.6;;;;;;;22.54;40.75391;927.6459;;;;
2020/04/28 10:58:13;;;;;;;2.6;1.4;;;;;;;22.2;42.3877;927.605;;;;
2020/04/28 11:02:43;;;;;;;1.7;1.3;;;;;;;22.11;41.72266;927.601;;;;
2020/04/28 11:04:53;;;;;;;2.2;1.2;;;;;;;22.06;41.91699;927.6354;;;;
2020/04/28 11:07:19;;;;;;;3.4;1.3;;;;;;;21.97;43.10352;927.6062;;;;
2020/04/28 11:10:04;;;;;;;4.7;1.4;;;;;;;22.01;43.56543;927.5941;;;;
2020/04/28 11:12:12;;;;;;;1.9;1.4;;;;;;;21.81;43.66406;927.6007;;;;
2020/04/28 11:20:43;;;;;;;3.8;1.8;;;;;;;21.97;45.69434;927.5144;;;;
2020/04/28 11:21:49;;;;;;;5.2;1.7;;;;;;;22.16;43.73145;927.5756;;;;
2020/04/28 11:26:47;;;;;;;6.1;1.6;;;;;;;22.09;44.24121;927.5307;;;;
2020/04/28 11:31:36;;;;;;;4;1.5;;;;;;;22.31;42.55078;927.5737;;;;
2020/04/28 11:33:59;;;;;;;2.5;1.5;;;;;;;22.46;42.53027;927.5066;;;;
2020/04/28 11:36:22;;;;;;;4.9;1.5;;;;;;;22.5;42.89746;927.5105;;;;
2020/04/28 11:38:39;;;;;;;6.3;2;;;;;;;22.25;43.48242;927.5649;;;;
2020/04/28 11:41:05;;;;;;;3.9;2;;;;;;;22.12;44.47852;927.6021;;;;
2020/04/28 11:43:31;;;;;;;4.9;1.8;;;;;;;22.15;45.19629;927.6355;;;;
2020/04/28 11:45:56;;;;;;;3.4;1.7;;;;;;;22.04;44.10742;927.6345;;;;
2020/04/28 11:48:22;;;;;;;4.9;1.8;;;;;;;21.79;44.5752;927.6406;;;;
2020/04/28 11:50:48;;;;;;;4.4;1.8;;;;;;;21.76;44.52441;927.6239;;;;
2020/04/28 11:53:15;;;;;;;3.6;1.9;;;;;;;21.8;45.14941;927.6735;;;;
2020/04/28 11:55:40;;;;;;;5.2;1.7;;;;;;;21.89;45.7334;927.6934;;;;
2020/04/28 11:58:07;;;;;;;5.1;1.7;;;;;;;22;45.30957;927.7074;;;;
2020/04/28 12:00:32;;;;;;;3;1.8;;;;;;;21.84;48.69141;927.7773;;;;
2020/04/28 12:02:57;;;;;;;4.8;1.8;;;;;;;21.86;49.29199;927.7378;;;;
2020/04/28 12:05:23;;;;;;;5.5;2.1;;;;;;;21.65;46.92676;927.7668;;;;
2020/04/28 12:07:48;;;;;;;3.5;1.7;;;;;;;21.34;46.82324;927.7556;;;;
2020/04/28 12:10:13;;;;;;;5.2;1.8;;;;;;;21.24;49.91211;927.7184;;;;
2020/04/28 12:12:38;;;;;;;3.9;1.9;;;;;;;20.77;50.4668;927.8297;;;;
2020/04/28 12:15:03;;;;;;;4.2;1.9;;;;;;;20.77;50.375;927.7275;;;;
2020/04/28 12:17:29;;;;;;;2.7;1.7;;;;;;;20.84;50.26465;927.8622;;;;
2020/04/28 12:19:54;;;;;;;2.7;1.8;;;;;;;20.82;52.06348;927.9462;;;;
2020/04/28 12:22:19;;;;;;;3;1.7;;;;;;;20.13;53.0791;928.0538;;;;
2020/04/28 12:24:44;;;;;;;4.1;2.1;;;;;;;19.15;57.22363;928.0323;;;;
2020/04/28 12:27:10;;;;;;;3.6;2.3;;;;;;;18.36;61.25977;928.0859;;;;
2020/04/28 12:29:35;;;;;;;4.4;2.6;;;;;;;17.7;64.19727;928.1053;;;;
2020/04/28 12:32:01;;;;;;;3.9;2.4;;;;;;;17.25;66.55469;928.1373;;;;
2020/04/28 12:34:27;;;;;;;3.6;2.3;;;;;;;17.02;66.0791;928.1693;;;;
2020/04/28 12:36:53;;;;;;;3.1;2.3;;;;;;;16.97;66.43164;928.2028;;;;
2020/04/28 12:39:18;;;;;;;3;2.3;;;;;;;16.93;67.47852;928.2709;;;;
2020/04/28 12:41:43;;;;;;;2.6;2.1;;;;;;;17.21;67.44043;928.2838;;;;
2020/04/28 12:44:08;;;;;;;3.7;2.7;;;;;;;17.09;71.07227;928.2267;;;;
2020/04/28 12:46:33;;;;;;;6.5;2.5;;;;;;;17.21;71.61426;928.2238;;;;
2020/04/28 12:48:58;;;;;;;3.9;2.2;;;;;;;17.18;72.29395;928.1802;;;;
2020/04/28 12:51:23;;;;;;;5.1;2.6;;;;;;;17.27;71.72949;928.2009;;;;
2020/04/28 12:53:49;;;;;;;4.9;2.5;;;;;;;17.75;70.78613;928.1689;;;;
2020/04/28 12:56:15;;;;;;;6.5;2.5;;;;;;;18.34;70.6709;928.1401;;;;
2020/04/28 12:58:40;;;;;;;4.8;2.2;;;;;;;18.48;65.46191;928.0619;;;;
2020/04/28 13:01:09;;;;;;;3.3;2.2;;;;;;;18.58;68.41895;928.0106;;;;
2020/04/28 13:03:33;;;;;;;3.4;2.1;;;;;;;18.79;68.41602;927.9529;;;;
2020/04/28 13:05:58;;;;;;;4.9;2.4;;;;;;;18.83;68.69238;927.9299;;;;
2020/04/28 13:08:23;;;;;;;3.1;2.1;;;;;;;19.17;64.80664;927.8459;;;;
2020/04/28 13:10:48;;;;;;;3.2;2.1;;;;;;;19.27;64.93945;927.8348;;;;
2020/04/28 13:13:13;;;;;;;3.5;2;;;;;;;19.14;61.54297;927.813;;;;
2020/04/28 13:15:40;;;;;;;2.4;2;;;;;;;19.28;61.21289;927.7352;;;;
2020/04/28 13:18:12;;;;;;;2.6;1.6;;;;;;;19.77;58.15527;927.7786;;;;
2020/04/28 13:20:44;;;;;;;3.8;1.8;;;;;;;20.15;58.89551;927.7439;;;;
2020/04/28 13:23:24;;;;;;;3.3;1.9;;;;;;;20.61;56.59375;927.7308;;;;
2020/04/28 13:32:59;;;;;;;2.8;2;;;;;;;19.89;58.82422;927.7494;;;;
2020/04/28 13:36:03;;;;;;;4.3;2.2;;;;;;;19.5;60.1123;927.7377;;;;
2020/04/28 13:38:08;;;;;;;4;1.9;;;;;;;19.06;60.62402;927.7203;;;;
2020/04/28 13:40:05;;;;;;;3.6;2.1;;;;;;;18.98;62.16113;927.7159;;;;
2020/04/28 13:43:16;;;;;;;3;2.2;;;;;;;19.01;61.79297;927.7302;;;;
2020/04/28 13:45:58;;;;;;;7;2.2;;;;;;;19.18;62.27051;927.6928;;;;
2020/04/28 13:48:32;;;;;;;2.4;1.9;;;;;;;19.4;60.98438;927.6203;;;;
2020/04/28 13:57:32;;;;;;;2.8;2;;;;;;;20.17;59.27148;927.6234;;;;
2020/04/28 14:00:11;;;;;;;4;2.2;;;;;;;19.82;61.20703;927.6272;;;;
2020/04/28 14:02:55;;;;;;;5;2.4;;;;;;;19.52;61.3623;927.6183;;;;
2020/04/28 14:04:44;;;;;;;3.5;2.6;;;;;;;19.24;62.05859;927.6197;;;;
2020/04/28 14:07:55;;;;;;;3.2;2.5;;;;;;;19.17;62.66406;927.6686;;;;
2020/04/28 14:10:22;;;;;;;3;2.3;;;;;;;18.88;63.35645;927.6499;;;;
2020/04/28 14:12:08;;;;;;;4.6;2.9;;;;;;;18.72;64.125;927.6646;;;;
2020/04/28 14:17:02;;;;;;;3.5;2.9;;;;;;;18.53;65.78418;927.8552;;;;
2020/04/28 14:19:28;;;;;;;4.2;2.6;;;;;;;18.34;65.83691;927.9094;;;;
2020/04/28 14:24:22;;;;;;;4.3;2.6;;;;;;;18.67;65.9209;927.7794;;;;
2020/04/28 14:26:33;;;;;;;4;2.6;;;;;;;18.57;66.12695;927.7585;;;;
2020/04/28 14:29:05;;;;;;;4.5;2.7;;;;;;;18.78;66.32031;927.7769;;;;
2020/04/28 14:31:26;;;;;;;4.5;2.5;;;;;;;18.78;65.62402;927.7873;;;;
2020/04/28 14:36:24;;;;;;;3.8;2.2;;;;;;;18.85;63.93457;927.6947;;;;
2020/04/28 14:41:11;;;;;;;3.5;2.2;;;;;;;18.09;66.04297;927.6825;;;;
2020/04/28 14:43:52;;;;;;;3.8;2.2;;;;;;;18.11;66.10352;927.7075;;;;
2020/04/28 14:45:58;;;;;;;2.7;2.1;;;;;;;18.27;64.80176;927.7262;;;;
2020/04/28 14:48:26;;;;;;;4.4;2.2;;;;;;;18.43;64.84961;927.6655;;;;
2020/04/28 14:51:25;;;;;;;2.7;2.1;;;;;;;18.63;64.42676;927.6158;;;;
2020/04/28 15:02:55;;;;;;;3;1.4;;;;;;;19.34;60.3584;927.6102;;;;
2020/04/28 15:05:11;;;;;;;3.4;1.1;;;;;;;19.29;58.88477;927.5945;;;;
2020/04/28 15:07:36;;;;;;;1.7;1;;;;;;;19.15;58.02734;927.5981;;;;
2020/04/28 15:10:01;;;;;;;2.1;0.9;;;;;;;18.73;58.86719;927.7589;;;;
2020/04/28 15:12:27;;;;;;;1.6;1;;;;;;;18.57;60.14941;927.8134;;;;
2020/04/28 15:14:52;;;;;;;1.9;1.2;;;;;;;18.39;59.89258;927.8544;;;;
2020/04/28 15:17:17;;;;;;;1.6;1.1;;;;;;;18.32;59.82422;927.8797;;;;
2020/04/28 15:19:44;;;;;;;2;0.9;;;;;;;18.26;59.78027;927.9006;;;;
2020/04/28 15:22:10;;;;;;;25.5;2;;;;;;;18.2;59.48242;927.8901;;;;
2020/04/28 15:24:36;;;;;;;2.5;1.1;;;;;;;18.26;60.00195;927.973;;;;
2020/04/28 15:27:01;;;;;;;2.7;1.2;;;;;;;18.17;60.87305;927.8646;;;;
2020/04/28 15:29:27;;;;;;;1.7;1;;;;;;;18.06;60.6377;927.9686;;;;
2020/04/28 15:31:54;;;;;;;1.2;1;;;;;;;17.98;61.21875;927.9309;;;;
2020/04/28 15:34:22;;;;;;;0.8;0.8;;;;;;;18.01;60.46875;927.9402;;;;
2020/04/28 15:36:47;;;;;;;3;0.8;;;;;;;18.01;58.92383;927.9353;;;;
2020/04/28 15:39:13;;;;;;;2.1;1;;;;;;;18.11;59.4707;928.0505;;;;
2020/04/28 15:41:38;;;;;;;1.1;1;;;;;;;18.28;60.02832;928.0721;;;;
2020/04/28 15:44:05;;;;;;;1.9;0.9;;;;;;;18.52;60.25781;928.0733;;;;
2020/04/28 15:46:31;;;;;;;1.5;1.1;;;;;;;18.62;59.67871;928.0945;;;;
2020/04/28 15:48:58;;;;;;;1.2;0.9;;;;;;;18.56;59.29883;928.1426;;;;
2020/04/28 15:51:23;;;;;;;1.7;1.1;;;;;;;18.66;59.0791;928.0983;;;;
2020/04/28 15:53:53;;;;;;;2.4;1;;;;;;;18.66;58.83496;928.0574;;;;
2020/04/28 15:56:18;;;;;;;2.6;1;;;;;;;18.47;59.26465;928.1766;;;;
2020/04/28 15:58:43;;;;;;;1.9;1;;;;;;;18.35;59.31641;928.0875;;;;
2020/04/28 16:01:09;;;;;;;1.2;0.8;;;;;;;18.38;59.79785;928.1153;;;;
2020/04/28 16:03:36;;;;;;;1.8;0.9;;;;;;;18.37;59.49414;928.0939;;;;
2020/04/28 16:06:01;;;;;;;1.1;0.8;;;;;;;18.34;59.01367;928.0641;;;;
2020/04/28 16:08:26;;;;;;;1.4;0.9;;;;;;;18.1;60.03809;928.0557;;;;
2020/04/28 16:10:51;;;;;;;1.9;0.9;;;;;;;17.87;61.50586;928.0619;;;;
2020/04/28 16:13:21;;;;;;;2.1;0.9;;;;;;;17.54;62.15527;928.0444;;;;
2020/04/28 16:15:46;;;;;;;1.6;0.9;;;;;;;17.18;62.85742;928.0667;;;;
2020/04/28 16:18:11;;;;;;;1;0.9;;;;;;;16.78;65.67188;928.0966;;;;
2020/04/28 16:20:38;;;;;;;1.2;1.1;;;;;;;16.61;66.94434;928.1323;;;;
2020/04/28 16:23:03;;;;;;;1.6;1.2;;;;;;;16.56;67.21387;928.1331;;;;
2020/04/28 16:25:30;;;;;;;1.7;1.1;;;;;;;16.18;68.70508;928.1437;;;;
2020/04/28 16:27:55;;;;;;;1.8;1;;;;;;;16.05;68.28125;928.1626;;;;
2020/04/28 16:30:20;;;;;;;4.2;1;;;;;;;15.89;68.5;928.108;;;;
2020/04/28 16:32:46;;;;;;;2.4;1;;;;;;;15.9;68.32715;928.0804;;;;
2020/04/28 16:35:11;;;;;;;1.5;1.1;;;;;;;15.87;68.33398;928.18;;;;
2020/04/28 16:37:37;;;;;;;1.6;1;;;;;;;15.82;68.26855;928.1789;;;;
2020/04/28 16:40:01;;;;;;;1.3;1;;;;;;;15.88;68.20801;928.1741;;;;
2020/04/28 16:42:27;;;;;;;1.8;1.1;;;;;;;15.92;68.48047;928.1119;;;;
2020/04/28 16:44:52;;;;;;;1.4;1.1;;;;;;;16;68.46875;928.1443;;;;
2020/04/28 16:48:24;;;;;;;2.8;1.4;;;;;;;15.94;68.66699;928.1822;;;;
2020/04/28 16:52:34;;;;;;;2.5;1.2;;;;;;;15.92;69.42676;928.1611;;;;
2020/04/28 16:59:42;;;;;;;3.7;1.9;;;;;;;15.83;69.875;928.3434;;;;
2020/04/28 17:04:32;;;;;;;7.2;4.2;;;;;;;15.73;70.46191;928.421;;;;
2020/04/28 17:07:07;;;;;;;9.1;5.6;;;;;;;15.86;69.68457;928.4829;;;;
2020/04/28 17:12:01;;;;;;;2.7;1.4;;;;;;;15.91;69.47168;928.5483;;;;
2020/04/28 17:16:41;;;;;;;3.1;1.7;;;;;;;15.91;71.11523;928.5441;;;;
2020/04/28 17:20:30;;;;;;;3.3;1.9;;;;;;;15.84;72.61719;928.6641;;;;
2020/04/28 17:23:52;;;;;;;3.2;1.8;;;;;;;15.81;73.28125;928.6486;;;;
2020/04/28 17:29:45;;;;;;;4.4;2.3;;;;;;;15.32;77.97949;928.6783;;;;
2020/04/28 17:32:16;;;;;;;4.7;2.5;;;;;;;15.29;79.24414;928.6824;;;;
2020/04/28 17:37:12;;;;;;;4.7;2.5;;;;;;;15.04;79.59082;928.7712;;;;
2020/04/28 17:41:45;;;;;;;2.8;2;;;;;;;15.1;80.21191;928.8141;;;;
2020/04/28 17:46:34;;;;;;;4.4;2.4;;;;;;;15.02;80.7627;928.9138;;;;
2020/04/28 17:51:39;;;;;;;7.2;2.4;;;;;;;15.13;80.60938;928.9537;;;;